createdAt,value
2018-05-14T00:00:43.356Z,13.74
2018-05-14T00:03:10.977Z,13.72
2018-05-14T00:05:38.581Z,13.64
2018-05-14T00:08:06.251Z,13.68
2018-05-14T00:10:33.879Z,13.63
2018-05-14T00:13:01.579Z,13.71
2018-05-14T00:15:29.241Z,13.76
2018-05-14T00:17:56.879Z,13.77
2018-05-14T00:20:24.511Z,13.74
2018-05-14T00:22:52.218Z,13.76
2018-05-14T00:25:19.839Z,13.73
2018-05-14T00:27:47.576Z,13.69
2018-05-14T00:30:15.268Z,13.54
2018-05-14T00:32:42.866Z,13.34
2018-05-14T00:35:10.512Z,13.29
2018-05-14T00:37:38.173Z,13.39
2018-05-14T00:40:05.782Z,13.42
2018-05-14T00:42:33.482Z,13.42
2018-05-14T00:45:01.154Z,13.41
2018-05-14T00:47:28.811Z,13.43
2018-05-14T00:49:56.430Z,13.23
2018-05-14T00:52:24.086Z,13.06
2018-05-14T00:55:03.421Z,13.04
2018-05-14T00:57:31.038Z,13.01
2018-05-14T00:59:58.643Z,13.08
2018-05-14T01:02:26.276Z,13.20
2018-05-14T01:04:53.973Z,13.33
2018-05-14T01:07:21.632Z,13.40
2018-05-14T01:09:50.176Z,13.50
2018-05-14T01:12:17.826Z,13.42
2018-05-14T01:14:45.455Z,13.39
2018-05-14T01:17:13.149Z,13.28
2018-05-14T01:19:40.792Z,13.34
2018-05-14T01:22:08.441Z,13.33
2018-05-14T01:24:36.155Z,13.25
2018-05-14T01:27:03.818Z,13.09
2018-05-14T01:29:31.500Z,13.16
2018-05-14T01:31:59.177Z,13.13
2018-05-14T01:34:26.805Z,13.15
2018-05-14T01:36:54.621Z,13.22
2018-05-14T01:39:22.559Z,13.24
2018-05-14T01:41:50.177Z,13.25
2018-05-14T01:44:17.857Z,13.29
2018-05-14T01:46:45.622Z,13.33
2018-05-14T01:49:13.328Z,13.28
2018-05-14T01:51:41.144Z,13.30
2018-05-14T01:54:08.848Z,13.28
2018-05-14T01:56:36.438Z,13.17
2018-05-14T01:59:04.087Z,13.04
2018-05-14T02:01:31.841Z,13.04
2018-05-14T02:03:59.780Z,12.89
2018-05-14T02:06:27.392Z,12.92
2018-05-14T02:08:55.058Z,12.95
2018-05-14T02:11:22.661Z,12.88
2018-05-14T02:13:50.316Z,12.93
2018-05-14T02:16:18.001Z,12.79
2018-05-14T02:18:45.663Z,12.81
2018-05-14T02:21:13.316Z,12.74
2018-05-14T02:23:40.991Z,12.72
2018-05-14T02:26:08.633Z,12.67
2018-05-14T02:28:36.314Z,12.65
2018-05-14T02:31:04.064Z,12.69
2018-05-14T02:33:31.706Z,12.61
2018-05-14T02:35:59.349Z,12.68
2018-05-14T02:38:27.023Z,12.62
2018-05-14T02:40:54.763Z,12.59
2018-05-14T02:43:22.437Z,12.59
2018-05-14T02:45:50.046Z,12.42
2018-05-14T02:48:17.712Z,12.37
2018-05-14T02:50:45.329Z,12.46
2018-05-14T02:53:12.963Z,12.44
2018-05-14T02:55:40.592Z,12.47
2018-05-14T02:58:08.184Z,12.44
2018-05-14T03:00:35.860Z,12.51
2018-05-14T03:03:03.599Z,12.56
2018-05-14T03:05:31.271Z,12.47
2018-05-14T03:07:58.872Z,12.44
2018-05-14T03:10:26.523Z,12.39
2018-05-14T03:12:55.397Z,12.34
2018-05-14T03:15:23.068Z,12.31
2018-05-14T03:17:50.684Z,12.27
2018-05-14T03:20:18.409Z,12.07
2018-05-14T03:22:46.134Z,12.27
2018-05-14T03:25:13.752Z,12.39
2018-05-14T03:27:41.459Z,12.34
2018-05-14T03:30:09.125Z,12.30
2018-05-14T03:32:36.783Z,12.26
2018-05-14T03:35:04.597Z,12.21
2018-05-14T03:37:32.242Z,12.20
2018-05-14T03:39:59.892Z,12.20
2018-05-14T03:42:27.538Z,12.16
2018-05-14T03:44:55.286Z,12.12
2018-05-14T03:47:22.935Z,12.07
2018-05-14T03:49:50.536Z,12.06
2018-05-14T03:52:18.147Z,11.92
2018-05-14T03:54:45.803Z,12.02
2018-05-14T03:57:13.383Z,12.35
2018-05-14T03:59:52.859Z,12.16
2018-05-14T04:02:44.006Z,12.13
2018-05-14T04:05:19.230Z,12.00
2018-05-14T04:07:46.865Z,12.03
2018-05-14T04:10:14.628Z,12.14
2018-05-14T04:12:42.262Z,12.00
2018-05-14T04:15:09.939Z,12.09
2018-05-14T04:17:37.524Z,11.96
2018-05-14T04:20:05.165Z,12.03
2018-05-14T04:22:32.832Z,11.90
2018-05-14T04:25:00.467Z,11.81
2018-05-14T04:27:28.211Z,12.05
2018-05-14T04:29:55.893Z,12.10
2018-05-14T04:32:23.555Z,12.27
2018-05-14T04:34:51.199Z,12.31
2018-05-14T04:37:18.821Z,12.29
2018-05-14T04:39:46.450Z,12.19
2018-05-14T04:42:14.143Z,11.98
2018-05-14T04:44:41.853Z,11.79
2018-05-14T04:47:09.507Z,11.98
2018-05-14T04:49:37.292Z,12.17
2018-05-14T04:52:04.977Z,12.23
2018-05-14T04:54:33.305Z,12.24
2018-05-14T04:57:00.949Z,12.27
2018-05-14T04:59:28.625Z,12.55
2018-05-14T05:01:56.239Z,12.68
2018-05-14T05:04:23.920Z,12.79
2018-05-14T05:06:51.540Z,13.02
2018-05-14T05:09:19.179Z,13.12
2018-05-14T05:11:46.824Z,13.22
2018-05-14T05:14:14.497Z,13.42
2018-05-14T05:16:42.097Z,13.58
2018-05-14T05:19:09.699Z,13.75
2018-05-14T05:21:37.434Z,14.03
2018-05-14T05:24:05.030Z,13.74
2018-05-14T05:26:32.704Z,13.47
2018-05-14T05:29:00.733Z,13.43
2018-05-14T05:31:28.389Z,13.25
2018-05-14T05:33:56.175Z,13.39
2018-05-14T05:36:23.860Z,13.49
2018-05-14T05:38:51.647Z,13.51
2018-05-14T05:41:19.275Z,13.45
2018-05-14T05:43:46.955Z,13.60
2018-05-14T05:46:14.632Z,13.69
2018-05-14T05:48:42.251Z,14.04
2018-05-14T05:51:09.905Z,14.25
2018-05-14T05:53:37.604Z,14.51
2018-05-14T05:56:05.938Z,14.63
2018-05-14T05:58:33.585Z,14.99
2018-05-14T06:01:01.249Z,15.22
2018-05-14T06:03:29.158Z,15.40
2018-05-14T06:05:56.774Z,15.66
2018-05-14T06:08:24.401Z,15.90
2018-05-14T06:10:52.024Z,15.16
2018-05-14T06:13:19.689Z,15.28
2018-05-14T06:15:47.343Z,15.75
2018-05-14T06:18:15.022Z,16.10
2018-05-14T06:20:42.720Z,16.42
2018-05-14T06:23:10.371Z,16.64
2018-05-14T06:25:37.978Z,16.68
2018-05-14T06:28:05.621Z,16.81
2018-05-14T06:30:34.479Z,16.90
2018-05-14T06:33:02.843Z,17.33
2018-05-14T06:35:30.592Z,17.57
2018-05-14T06:37:58.260Z,17.74
2018-05-14T06:40:25.871Z,18.18
2018-05-14T06:42:53.522Z,18.47
2018-05-14T06:45:21.183Z,18.84
2018-05-14T06:47:48.806Z,19.15
2018-05-14T06:50:16.482Z,19.09
2018-05-14T06:52:44.199Z,19.36
2018-05-14T06:55:11.912Z,18.99
2018-05-14T06:57:39.560Z,19.24
2018-05-14T07:00:07.239Z,19.10
2018-05-14T07:02:34.874Z,19.69
2018-05-14T07:05:02.495Z,20.53
2018-05-14T07:07:30.159Z,20.30
2018-05-14T07:09:57.746Z,20.58
2018-05-14T07:12:25.412Z,20.38
2018-05-14T07:14:53.067Z,19.61
2018-05-14T07:17:20.693Z,19.90
2018-05-14T07:19:48.344Z,20.77
2018-05-14T07:22:15.999Z,20.50
2018-05-14T07:24:43.704Z,20.21
2018-05-14T07:27:11.337Z,20.11
2018-05-14T07:29:38.955Z,20.53
2018-05-14T07:32:06.624Z,20.00
2018-05-14T07:34:34.288Z,20.03
2018-05-14T07:37:01.933Z,20.06
2018-05-14T07:39:29.602Z,19.80
2018-05-14T07:41:57.225Z,20.33
2018-05-14T07:44:24.839Z,20.32
2018-05-14T07:46:52.523Z,19.73
2018-05-14T07:49:20.198Z,19.94
2018-05-14T07:51:47.894Z,19.90
2018-05-14T07:54:15.492Z,20.11
2018-05-14T07:56:43.149Z,20.02
2018-05-14T07:59:10.760Z,20.56
2018-05-14T08:01:38.429Z,20.46
2018-05-14T08:04:06.586Z,20.87
2018-05-14T08:06:34.290Z,21.35
2018-05-14T08:09:01.931Z,21.52
2018-05-14T08:11:29.927Z,21.55
2018-05-14T08:13:57.631Z,21.19
2018-05-14T08:16:25.269Z,21.61
2018-05-14T08:18:53.137Z,20.92
2018-05-14T08:21:20.988Z,21.44
2018-05-14T08:23:48.871Z,21.38
2018-05-14T08:26:17.251Z,21.15
2018-05-14T08:28:45.171Z,20.92
2018-05-14T08:31:13.133Z,21.87
2018-05-14T08:33:40.835Z,22.37
2018-05-14T08:36:08.828Z,22.49
2018-05-14T08:38:37.292Z,22.32
2018-05-14T08:41:05.213Z,22.40
2018-05-14T08:43:33.550Z,22.14
2018-05-14T08:46:01.302Z,21.77
2018-05-14T08:48:30.529Z,21.85
2018-05-14T08:50:58.381Z,21.51
2018-05-14T08:53:26.339Z,21.60
2018-05-14T08:55:54.168Z,20.68
2018-05-14T08:58:21.979Z,20.83
2018-05-14T09:00:49.873Z,20.97
2018-05-14T09:03:17.798Z,20.97
2018-05-14T09:05:45.635Z,21.41
2018-05-14T09:08:13.286Z,21.49
2018-05-14T09:10:40.912Z,21.69
2018-05-14T09:13:09.351Z,22.04
2018-05-14T09:15:37.140Z,22.41
2018-05-14T09:18:05.122Z,22.47
2018-05-14T09:20:32.877Z,22.29
2018-05-14T09:23:00.525Z,22.78
2018-05-14T09:25:28.835Z,23.20
2018-05-14T09:27:56.786Z,22.88
2018-05-14T09:30:24.482Z,23.11
2018-05-14T09:32:53.660Z,23.41
2018-05-14T09:35:22.594Z,22.93
2018-05-14T09:37:53.032Z,22.48
2018-05-14T09:40:21.520Z,22.61
2018-05-14T09:42:49.122Z,23.05
2018-05-14T09:45:16.774Z,22.71
2018-05-14T09:47:44.439Z,22.95
2018-05-14T09:50:12.094Z,22.72
2018-05-14T09:52:39.772Z,22.50
2018-05-14T09:55:08.415Z,22.71
2018-05-14T09:57:36.545Z,22.62
2018-05-14T10:00:05.275Z,22.83
2018-05-14T10:02:33.055Z,22.97
2018-05-14T10:05:00.674Z,23.01
2018-05-14T10:07:28.995Z,23.39
2018-05-14T10:09:56.585Z,23.69
2018-05-14T10:12:24.334Z,23.34
2018-05-14T10:14:51.948Z,23.91
2018-05-14T10:17:19.617Z,23.49
2018-05-14T10:19:47.363Z,23.87
2018-05-14T10:22:16.927Z,23.94
2018-05-14T10:24:44.873Z,23.55
2018-05-14T10:27:12.944Z,23.31
2018-05-14T10:29:41.070Z,23.27
2018-05-14T10:32:09.170Z,22.29
2018-05-14T10:34:36.937Z,22.32
2018-05-14T10:37:04.864Z,22.29
2018-05-14T10:39:32.621Z,22.24
2018-05-14T10:42:00.258Z,22.18
2018-05-14T10:44:27.948Z,21.83
2018-05-14T10:46:55.638Z,21.75
2018-05-14T10:49:24.300Z,21.53
2018-05-14T10:51:51.984Z,22.48
2018-05-14T10:54:19.806Z,23.21
2018-05-14T10:56:47.488Z,23.65
2018-05-14T10:59:15.460Z,23.21
2018-05-14T11:01:43.124Z,22.34
2018-05-14T11:04:10.808Z,23.16
2018-05-14T11:06:38.440Z,23.31
2018-05-14T11:09:10.179Z,22.43
2018-05-14T11:11:37.825Z,22.87
2018-05-14T11:14:05.573Z,22.81
2018-05-14T11:16:33.605Z,23.20
2018-05-14T11:19:03.127Z,22.84
2018-05-14T11:21:30.823Z,22.76
2018-05-14T11:23:59.587Z,22.87
2018-05-14T11:26:28.837Z,22.67
2018-05-14T11:28:56.831Z,22.46
2018-05-14T11:31:24.698Z,22.38
2018-05-14T11:33:53.243Z,22.24
2018-05-14T11:36:20.930Z,22.01
2018-05-14T11:38:50.235Z,22.84
2018-05-14T11:41:18.099Z,23.06
2018-05-14T11:43:45.815Z,22.35
2018-05-14T11:46:13.441Z,22.11
2018-05-14T11:48:41.065Z,22.85
2018-05-14T11:51:08.757Z,22.63
2018-05-14T11:53:36.396Z,21.60
2018-05-14T11:56:04.102Z,21.71
2018-05-14T11:58:31.767Z,21.68
2018-05-14T12:00:59.520Z,21.99
2018-05-14T12:03:27.255Z,21.72
2018-05-14T12:05:55.130Z,21.84
2018-05-14T12:08:23.064Z,21.32
2018-05-14T12:10:50.830Z,21.43
2018-05-14T12:13:18.868Z,21.67
2018-05-14T12:15:46.811Z,21.04
2018-05-14T12:18:15.575Z,21.57
2018-05-14T12:20:43.257Z,21.13
2018-05-14T12:23:11.399Z,21.29
2018-05-14T12:25:39.680Z,21.17
2018-05-14T12:28:07.652Z,21.38
2018-05-14T12:30:36.144Z,21.16
2018-05-14T12:33:03.805Z,20.55
2018-05-14T12:35:31.647Z,20.05
2018-05-14T12:38:00.268Z,20.00
2018-05-14T12:40:28.458Z,20.36
2018-05-14T12:42:57.915Z,19.90
2018-05-14T12:45:25.566Z,20.39
2018-05-14T12:47:53.222Z,20.06
2018-05-14T12:50:20.915Z,20.05
2018-05-14T12:52:48.658Z,20.31
2018-05-14T12:55:17.145Z,19.64
2018-05-14T12:57:45.379Z,19.28
2018-05-14T13:00:13.003Z,19.67
2018-05-14T13:02:41.209Z,19.58
2018-05-14T13:05:09.337Z,19.32
2018-05-14T13:07:37.558Z,19.33
2018-05-14T13:10:06.040Z,19.30
2018-05-14T13:12:34.915Z,19.35
2018-05-14T13:15:05.655Z,19.06
2018-05-14T13:17:33.369Z,18.85
2018-05-14T13:20:01.422Z,18.42
2018-05-14T13:22:29.765Z,18.57
2018-05-14T13:24:57.728Z,18.49
2018-05-14T13:27:25.618Z,18.35
2018-05-14T13:29:53.281Z,18.54
2018-05-14T13:32:20.995Z,18.17
2018-05-14T13:34:49.012Z,18.14
2018-05-14T13:37:16.879Z,18.36
2018-05-14T13:39:44.560Z,18.25
2018-05-14T13:42:12.238Z,18.08
2018-05-14T13:44:40.033Z,17.94
2018-05-14T13:47:07.624Z,17.42
2018-05-14T13:49:35.556Z,17.77
2018-05-14T13:52:03.269Z,17.71
2018-05-14T13:54:31.335Z,17.91
2018-05-14T13:56:59.508Z,17.64
2018-05-14T13:59:28.301Z,17.64
2018-05-14T14:01:56.343Z,17.25
2018-05-14T14:04:24.141Z,17.54
2018-05-14T14:06:51.918Z,17.49
2018-05-14T14:09:19.649Z,17.33
2018-05-14T14:11:47.380Z,17.50
2018-05-14T14:14:15.016Z,17.46
2018-05-14T14:16:42.731Z,17.64
2018-05-14T14:19:10.358Z,17.59
2018-05-14T14:21:38.077Z,17.30
2018-05-14T14:24:06.300Z,17.27
2018-05-14T14:26:34.217Z,17.66
2018-05-14T14:29:02.858Z,17.38
2018-05-14T14:31:31.071Z,17.18
2018-05-14T14:33:59.387Z,17.34
2018-05-14T14:36:27.940Z,17.29
2018-05-14T14:38:55.918Z,17.38
2018-05-14T14:41:23.970Z,17.60
2018-05-14T14:43:53.532Z,17.47
2018-05-14T14:46:22.418Z,17.54
2018-05-14T14:48:50.243Z,17.48
2018-05-14T14:51:18.190Z,17.63
2018-05-14T14:53:45.986Z,17.67
2018-05-14T14:56:15.116Z,17.42
2018-05-14T14:58:43.767Z,17.08
2018-05-14T15:01:11.464Z,17.28
2018-05-14T15:03:39.298Z,17.41
2018-05-14T15:06:07.108Z,16.99
2018-05-14T15:08:35.342Z,16.91
2018-05-14T15:11:03.421Z,16.94
2018-05-14T15:13:31.329Z,16.88
2018-05-14T15:15:59.260Z,16.88
2018-05-14T15:18:27.315Z,16.93
2018-05-14T15:20:55.351Z,17.08
2018-05-14T15:23:23.126Z,17.06
2018-05-14T15:25:52.352Z,16.84
2018-05-14T15:28:20.075Z,16.75
2018-05-14T15:30:47.886Z,16.68
2018-05-14T15:33:16.030Z,16.81
2018-05-14T15:35:43.673Z,16.81
2018-05-14T15:38:11.691Z,16.79
2018-05-14T15:40:39.365Z,16.67
2018-05-14T15:43:07.612Z,16.64
2018-05-14T15:45:37.669Z,16.41
2018-05-14T15:48:05.446Z,16.56
2018-05-14T15:50:33.365Z,16.48
2018-05-14T15:53:01.004Z,16.41
2018-05-14T15:55:28.777Z,16.54
2018-05-14T15:57:56.574Z,16.64
2018-05-14T16:00:24.225Z,16.69
2018-05-14T16:02:52.168Z,16.61
2018-05-14T16:05:19.822Z,16.61
2018-05-14T16:07:47.534Z,16.68
2018-05-14T16:10:17.056Z,16.50
2018-05-14T16:12:45.265Z,16.28
2018-05-14T16:15:12.974Z,16.46
2018-05-14T16:17:40.953Z,16.30
2018-05-14T16:20:09.017Z,16.36
2018-05-14T16:25:04.251Z,16.54
2018-05-14T16:27:32.352Z,16.66
2018-05-14T16:30:00.264Z,16.66
2018-05-14T16:32:29.644Z,16.70
2018-05-14T16:34:57.736Z,16.68
2018-05-14T16:37:25.934Z,16.64
2018-05-14T16:39:53.761Z,16.63
2018-05-14T16:42:21.566Z,16.64
2018-05-14T16:44:50.416Z,16.54
2018-05-14T16:47:20.180Z,16.48
2018-05-14T16:49:48.516Z,16.42
2018-05-14T16:52:16.401Z,16.32
2018-05-14T16:54:44.414Z,16.22
2018-05-14T16:57:12.241Z,16.25
2018-05-14T16:59:40.726Z,16.15
2018-05-14T17:02:08.739Z,15.93
2018-05-14T17:04:36.873Z,15.89
2018-05-14T17:07:05.763Z,16.10
2018-05-14T17:09:33.793Z,15.98
2018-05-14T17:12:02.120Z,16.15
2018-05-14T17:14:30.982Z,15.97
2018-05-14T17:16:59.077Z,16.00
2018-05-14T17:19:27.767Z,16.06
2018-05-14T17:21:56.411Z,16.23
2018-05-14T17:24:24.564Z,15.88
2018-05-14T17:26:52.570Z,16.01
2018-05-14T17:29:20.362Z,16.10
2018-05-14T17:31:49.861Z,16.14
2018-05-14T17:34:18.939Z,16.18
2018-05-14T17:36:47.890Z,16.14
2018-05-14T17:39:17.717Z,16.13
2018-05-14T17:41:46.376Z,16.15
2018-05-14T17:44:14.857Z,16.15
2018-05-14T17:46:42.947Z,16.24
2018-05-14T17:49:13.232Z,15.97
2018-05-14T17:51:41.535Z,15.84
2018-05-14T17:54:10.163Z,15.72
2018-05-14T17:56:42.165Z,15.70
2018-05-14T17:59:18.086Z,15.53
2018-05-14T18:01:53.036Z,15.69
2018-05-14T18:04:25.811Z,15.77
2018-05-14T18:06:56.904Z,15.51
2018-05-14T18:09:27.106Z,15.69
2018-05-14T18:11:57.404Z,15.63
2018-05-14T18:14:27.589Z,15.71
2018-05-14T18:16:57.171Z,15.57
2018-05-14T18:19:26.590Z,15.40
2018-05-14T18:22:01.573Z,15.35
2018-05-14T18:24:29.716Z,15.26
2018-05-14T18:26:58.551Z,15.35
2018-05-14T18:29:32.158Z,15.48
2018-05-14T18:32:05.275Z,15.37
2018-05-14T18:34:40.387Z,15.27
2018-05-14T18:37:08.807Z,15.37
2018-05-14T18:39:38.631Z,15.34
2018-05-14T18:42:09.026Z,15.28
2018-05-14T18:44:38.797Z,15.22
2018-05-14T18:47:08.848Z,15.13
2018-05-14T18:49:37.797Z,15.19
2018-05-14T18:52:05.844Z,15.24
2018-05-14T18:54:33.729Z,15.05
2018-05-14T18:57:01.982Z,14.97
2018-05-14T18:59:30.807Z,15.03
2018-05-14T19:02:00.010Z,15.13
2018-05-14T19:04:30.913Z,15.19
2018-05-14T19:06:59.435Z,15.14
2018-05-14T19:09:28.900Z,15.18
2018-05-14T19:11:57.298Z,15.17
2018-05-14T19:14:25.648Z,15.19
2018-05-14T19:16:59.555Z,15.15
2018-05-14T19:19:27.802Z,15.11
2018-05-14T19:21:55.858Z,14.86
2018-05-14T19:24:24.132Z,14.85
2018-05-14T19:26:52.210Z,14.76
2018-05-14T19:29:26.513Z,14.76
2018-05-14T19:31:54.383Z,14.82
2018-05-14T19:34:28.303Z,14.86
2018-05-14T19:36:56.374Z,14.83
2018-05-14T19:39:31.136Z,14.84
2018-05-14T19:41:58.868Z,14.73
2018-05-14T19:44:26.943Z,14.65
2018-05-14T19:46:54.985Z,14.64
2018-05-14T19:49:23.392Z,14.77
2018-05-14T19:51:51.230Z,14.77
2018-05-14T19:54:19.235Z,14.68
2018-05-14T19:56:47.486Z,14.71
2018-05-14T19:59:16.253Z,14.72
2018-05-14T20:01:45.294Z,14.48
2018-05-14T20:04:13.330Z,14.44
2018-05-14T20:06:41.110Z,14.47
2018-05-14T20:09:09.269Z,14.53
2018-05-14T20:11:37.163Z,14.48
2018-05-14T20:14:05.248Z,14.53
2018-05-14T20:16:32.915Z,14.48
2018-05-14T20:19:00.646Z,14.40
2018-05-14T20:21:28.835Z,14.34
2018-05-14T20:23:56.935Z,14.37
2018-05-14T20:26:25.966Z,14.50
2018-05-14T20:28:53.778Z,14.52
2018-05-14T20:31:21.572Z,14.37
2018-05-14T20:33:49.502Z,14.36
2018-05-14T20:36:17.244Z,14.34
2018-05-14T20:38:45.569Z,14.37
2018-05-14T20:41:13.327Z,14.29
2018-05-14T20:43:41.207Z,14.29
2018-05-14T20:46:09.252Z,14.23
2018-05-14T20:48:36.968Z,14.20
2018-05-14T20:51:05.365Z,14.19
2018-05-14T20:53:33.241Z,14.18
2018-05-14T20:56:01.021Z,14.21
2018-05-14T20:58:28.778Z,14.24
2018-05-14T21:00:56.393Z,14.30
2018-05-14T21:03:24.112Z,14.44
2018-05-14T21:05:51.770Z,14.34
2018-05-14T21:08:19.509Z,14.17
2018-05-14T21:10:47.301Z,14.18
2018-05-14T21:13:15.144Z,14.26
2018-05-14T21:15:43.428Z,14.28
2018-05-14T21:18:11.086Z,14.32
2018-05-14T21:20:38.781Z,14.30
2018-05-14T21:23:06.535Z,14.24
2018-05-14T21:25:34.406Z,14.25
2018-05-14T21:28:02.169Z,14.19
2018-05-14T21:30:30.444Z,14.12
2018-05-14T21:32:58.191Z,14.17
2018-05-14T21:35:25.880Z,14.14
2018-05-14T21:37:53.506Z,14.07
2018-05-14T21:40:21.199Z,13.95
2018-05-14T21:42:48.955Z,14.03
2018-05-14T21:45:16.611Z,13.94
2018-05-14T21:47:44.235Z,13.94
2018-05-14T21:50:12.148Z,13.95
2018-05-14T21:52:40.024Z,13.95
2018-05-14T21:55:08.510Z,13.86
2018-05-14T21:57:36.150Z,13.82
2018-05-14T22:00:05.572Z,13.78
2018-05-14T22:02:33.249Z,13.79
2018-05-14T22:05:00.833Z,13.87
2018-05-14T22:07:28.968Z,13.76
2018-05-14T22:09:56.629Z,13.85
2018-05-14T22:12:24.259Z,13.77
2018-05-14T22:14:52.039Z,13.85
2018-05-14T22:17:20.310Z,13.87
2018-05-14T22:19:47.977Z,13.77
2018-05-14T22:22:15.658Z,13.70
2018-05-14T22:24:43.290Z,13.61
2018-05-14T22:27:11.775Z,13.54
2018-05-14T22:29:39.554Z,13.56
2018-05-14T22:32:07.195Z,13.64
2018-05-14T22:34:35.055Z,13.71
2018-05-14T22:37:02.747Z,13.63
2018-05-14T22:39:30.421Z,13.56
2018-05-14T22:41:58.076Z,13.57
2018-05-14T22:44:26.168Z,13.54
2018-05-14T22:46:53.916Z,13.64
2018-05-14T22:49:22.405Z,13.62
2018-05-14T22:51:50.083Z,13.41
2018-05-14T22:54:29.662Z,13.44
2018-05-14T22:56:57.365Z,13.44
2018-05-14T22:59:25.058Z,13.37
2018-05-14T23:01:53.520Z,13.29
2018-05-14T23:04:21.184Z,13.29
2018-05-14T23:06:50.028Z,13.28
2018-05-14T23:09:17.724Z,13.24
2018-05-14T23:11:46.007Z,13.15
2018-05-14T23:14:16.132Z,13.10
2018-05-14T23:16:43.978Z,13.02
2018-05-14T23:19:12.067Z,13.12
2018-05-14T23:21:40.017Z,13.15
2018-05-14T23:24:08.591Z,13.13
2018-05-14T23:26:36.499Z,13.18
2018-05-14T23:29:04.768Z,13.20
2018-05-14T23:31:32.424Z,13.24
2018-05-14T23:34:00.747Z,13.21
2018-05-14T23:36:29.713Z,13.31
2018-05-14T23:38:57.940Z,13.24
2018-05-14T23:41:25.713Z,13.16
2018-05-14T23:43:53.355Z,12.95
2018-05-14T23:46:21.517Z,13.04
2018-05-14T23:48:49.163Z,13.13
2018-05-14T23:51:16.818Z,13.14
2018-05-14T23:53:45.125Z,13.07
2018-05-14T23:56:12.925Z,13.06
2018-05-14T23:58:40.526Z,13.08
